createdAt,value
2022-08-30T00:00:00.362Z,89
2022-08-30T00:15:01.609Z,89
2022-08-30T00:30:01.193Z,89
2022-08-30T00:45:06.981Z,90
2022-08-30T01:00:08.785Z,91
2022-08-30T01:15:04.867Z,91
2022-08-30T01:29:59.973Z,91
2022-08-30T01:45:00.997Z,91
2022-08-30T02:00:00.695Z,92
2022-08-30T02:15:01.649Z,92
2022-08-30T02:30:00.026Z,92
2022-08-30T02:45:05.741Z,92
2022-08-30T03:00:01.061Z,92
2022-08-30T03:15:06.884Z,93
2022-08-30T03:30:02.114Z,93
2022-08-30T03:45:03.246Z,93
2022-08-30T04:00:05.954Z,93
2022-08-30T04:15:05.623Z,93
2022-08-30T04:30:03.828Z,93
2022-08-30T04:45:02.122Z,94
2022-08-30T05:00:03.344Z,94
2022-08-30T05:15:06.150Z,94
2022-08-30T05:30:05.844Z,94
2022-08-30T05:45:06.865Z,93
2022-08-30T06:00:03.933Z,92
2022-08-30T06:15:03.707Z,90
2022-08-30T06:30:05.126Z,88
2022-08-30T06:45:10.777Z,86
2022-08-30T07:00:05.390Z,81
2022-08-30T07:15:06.409Z,79
2022-08-30T07:30:07.539Z,77
2022-08-30T07:44:59.871Z,74
2022-08-30T08:00:07.003Z,72
2022-08-30T08:15:08.284Z,70
2022-08-30T08:30:54.660Z,69
2022-08-30T08:45:01.160Z,67
2022-08-30T09:00:08.328Z,66
2022-08-30T09:15:06.165Z,63
2022-08-30T09:30:06.561Z,63
2022-08-30T09:45:03.805Z,59
2022-08-30T10:00:04.566Z,61
2022-08-30T10:15:01.189Z,60
2022-08-30T10:30:02.319Z,57
2022-08-30T10:45:03.369Z,59
2022-08-30T11:00:05.865Z,55
2022-08-30T11:15:02.492Z,55
2022-08-30T11:30:07.309Z,53
2022-08-30T11:45:01.494Z,51
2022-08-30T12:00:08.249Z,49
2022-08-30T12:15:00.255Z,52
2022-08-30T12:30:07.478Z,53
2022-08-30T12:45:08.503Z,53
2022-08-30T13:00:03.637Z,53
2022-08-30T13:15:04.641Z,52
2022-08-30T13:30:00.623Z,49
2022-08-30T13:45:00.813Z,48
2022-08-30T14:00:02.861Z,46
2022-08-30T14:15:06.895Z,46
2022-08-30T14:30:02.095Z,49
2022-08-30T14:45:01.817Z,51
2022-08-30T15:00:03.026Z,53
2022-08-30T15:15:08.532Z,51
2022-08-30T15:30:06.111Z,54
2022-08-30T15:45:06.395Z,54
2022-08-30T15:59:59.645Z,57
2022-08-30T16:15:00.787Z,58
2022-08-30T16:30:00.459Z,57
2022-08-30T16:45:00.861Z,58
2022-08-30T16:59:59.783Z,59
2022-08-30T17:15:06.924Z,61
2022-08-30T17:30:06.025Z,61
2022-08-30T17:45:06.598Z,62
2022-08-30T18:00:03.746Z,65
2022-08-30T18:15:22.985Z,66
2022-08-30T18:30:01.676Z,67
2022-08-30T18:45:11.470Z,69
2022-08-30T19:00:08.085Z,69
2022-08-30T19:14:59.787Z,73
2022-08-30T19:30:01.489Z,72
2022-08-30T19:45:05.037Z,71
2022-08-30T20:00:04.532Z,70
2022-08-30T20:15:08.800Z,72
2022-08-30T20:30:06.464Z,73
2022-08-30T20:45:01.612Z,73
2022-08-30T21:00:01.156Z,73
2022-08-30T21:15:27.002Z,75
2022-08-30T21:30:08.131Z,79
2022-08-30T21:45:01.934Z,81
2022-08-30T22:00:00.091Z,84
2022-08-30T22:14:59.838Z,85
2022-08-30T22:30:01.082Z,87
2022-08-30T22:45:06.857Z,88
2022-08-30T23:00:07.998Z,89
2022-08-30T23:15:05.123Z,90
2022-08-30T23:30:07.698Z,90
2022-08-30T23:45:02.943Z,91
